Time;durP1;ratioP1;P1;durP2;ratioP2;P2;SDS_P1;SDS_P2;PMS_P1;PMS_P2;Temp;Humidity;BMP_temperature;BMP_pressure;BME280_temperature;BME280_humidity;BME280_pressure;Samples;Min_cycle;Max_cycle;Signal;HPM_P1;HPM_P2
2023/07/20 00:00:33;;;;;;;18.58;6.32;;;27.40;84.00;;;;;;5014699;28;20054;-79
2023/07/20 00:03:16;;;;;;;15.60;6.65;;;27.40;84.30;;;;;;5013334;28;20453;-78
2023/07/20 00:05:44;;;;;;;15.70;6.07;;;27.40;83.80;;;;;;5008746;28;20073;-77
2023/07/20 00:08:11;;;;;;;21.45;5.60;;;27.30;85.00;;;;;;5035899;28;20136;-77
2023/07/20 00:10:40;;;;;;;12.63;5.60;;;27.30;84.50;;;;;;5009376;28;20048;-78
2023/07/20 00:13:08;;;;;;;19.85;5.63;;;27.30;84.80;;;;;;5007733;28;20524;-80
2023/07/20 00:15:37;;;;;;;14.90;5.25;;;27.30;84.60;;;;;;4994996;28;20039;-78
2023/07/20 00:18:05;;;;;;;11.77;5.87;;;27.30;84.20;;;;;;4995080;28;20070;-80
2023/07/20 00:20:33;;;;;;;16.13;6.18;;;27.30;84.50;;;;;;4986357;28;20049;-79
2023/07/20 00:23:00;;;;;;;18.25;5.00;;;27.30;84.70;;;;;;5016256;28;20034;-81
2023/07/20 00:25:28;;;;;;;15.45;5.43;;;27.30;84.90;;;;;;5010357;28;20054;-81
2023/07/20 00:27:55;;;;;;;14.57;4.63;;;27.30;84.80;;;;;;5008992;28;20135;-82
2023/07/20 00:30:23;;;;;;;13.63;4.55;;;27.30;85.20;;;;;;5012124;28;20049;-82
2023/07/20 00:32:51;;;;;;;17.63;5.40;;;27.20;85.20;;;;;;5008832;28;20544;-80
2023/07/20 00:35:20;;;;;;;17.95;4.70;;;27.10;84.60;;;;;;5011896;28;20053;-78
2023/07/20 00:37:47;;;;;;;14.52;5.32;;;27.00;85.30;;;;;;5006276;28;20478;-77
2023/07/20 00:40:14;;;;;;;19.75;4.68;;;26.90;85.50;;;;;;5012533;28;20072;-77
2023/07/20 00:42:42;;;;;;;18.73;4.10;;;26.90;85.50;;;;;;4994930;28;20038;-80
2023/07/20 00:45:09;;;;;;;18.33;5.03;;;26.90;85.50;;;;;;5011419;28;20122;-78
2023/07/20 00:47:37;;;;;;;11.55;4.72;;;26.90;85.70;;;;;;5007997;28;20148;-77
2023/07/20 00:50:05;;;;;;;12.82;4.60;;;26.90;86.00;;;;;;4999993;28;20103;-79
2023/07/20 00:52:33;;;;;;;14.95;4.80;;;26.90;86.50;;;;;;5010881;28;20140;-79
2023/07/20 00:55:01;;;;;;;12.48;5.55;;;26.60;87.20;;;;;;5003964;28;20473;-79
2023/07/20 00:57:29;;;;;;;15.93;6.55;;;26.40;88.10;;;;;;5011306;28;20041;-80
2023/07/20 00:59:56;;;;;;;16.17;6.07;;;26.10;89.70;;;;;;5008759;28;20548;-79
2023/07/20 01:02:26;;;;;;;19.75;6.63;;;26.00;90.20;;;;;;5002423;28;20082;-81
2023/07/20 01:04:53;;;;;;;19.92;6.03;;;25.80;90.50;;;;;;5010756;28;20054;-80
2023/07/20 01:07:31;;;;;;;18.52;6.68;;;25.60;90.70;;;;;;5016164;28;20053;-81
2023/07/20 01:10:25;;;;;;;15.85;6.47;;;25.70;90.70;;;;;;5009841;28;20655;-79
2023/07/20 01:12:56;;;;;;;13.10;5.00;;;25.50;90.90;;;;;;4999101;28;20105;-79
2023/07/20 01:15:24;;;;;;;13.75;5.40;;;25.50;91.00;;;;;;4993056;28;20054;-80
2023/07/20 01:17:51;;;;;;;21.48;6.13;;;25.30;91.30;;;;;;5006020;28;20678;-78
2023/07/20 01:20:21;;;;;;;14.38;5.30;;;25.50;91.10;;;;;;5003801;28;20038;-80
2023/07/20 01:23:10;;;;;;;19.95;5.13;;;25.70;90.80;;;;;;4995663;28;20121;-79
2023/07/20 01:26:09;;;;;;;11.65;4.28;;;25.80;90.40;;;;;;4983797;28;20046;-80
2023/07/20 01:29:18;;;;;;;12.85;4.70;;;25.50;90.90;;;;;;5000253;28;20046;-82
2023/07/20 01:31:46;;;;;;;15.10;4.68;;;25.90;90.60;;;;;;5001310;28;20050;-81
2023/07/20 01:34:17;;;;;;;22.75;5.25;;;25.50;91.00;;;;;;4992902;28;20077;-79
2023/07/20 01:36:46;;;;;;;16.05;4.40;;;25.70;91.20;;;;;;4976637;28;20100;-81
2023/07/20 01:39:14;;;;;;;13.93;4.22;;;25.80;90.80;;;;;;4974165;28;20049;-82
2023/07/20 01:41:42;;;;;;;15.43;4.43;;;25.80;90.70;;;;;;4995872;28;20042;-82
2023/07/20 01:44:10;;;;;;;16.85;4.15;;;25.90;90.70;;;;;;5013327;28;20387;-79
2023/07/20 01:46:37;;;;;;;14.38;4.97;;;25.80;90.80;;;;;;5004364;28;20492;-80
2023/07/20 01:49:05;;;;;;;17.55;5.97;;;25.90;90.90;;;;;;5013167;28;20041;-84
2023/07/20 01:51:32;;;;;;;11.73;4.70;;;26.10;90.60;;;;;;5007380;28;20045;-82
2023/07/20 01:54:00;;;;;;;17.20;5.57;;;26.20;90.70;;;;;;5006162;28;20120;-79
2023/07/20 01:56:27;;;;;;;17.08;6.82;;;26.20;90.80;;;;;;5016280;28;20172;-86
2023/07/20 01:58:54;;;;;;;17.25;5.88;;;26.20;90.80;;;;;;5019812;28;20043;-84
2023/07/20 02:01:21;;;;;;;15.80;5.38;;;26.20;90.90;;;;;;5005033;28;20084;-79
2023/07/20 02:03:49;;;;;;;17.75;5.45;;;26.20;91.00;;;;;;4997605;28;20042;-83
2023/07/20 02:06:16;;;;;;;13.57;4.90;;;26.20;91.00;;;;;;4996715;28;20679;-79
2023/07/20 02:08:46;;;;;;;12.93;4.55;;;26.20;91.10;;;;;;4995516;28;20034;-77
2023/07/20 02:11:13;;;;;;;12.85;4.90;;;26.30;91.20;;;;;;5014621;28;20389;-79
2023/07/20 02:13:41;;;;;;;22.50;5.00;;;26.20;91.30;;;;;;5003709;28;20499;-83
2023/07/20 02:16:08;;;;;;;12.77;5.35;;;26.20;91.20;;;;;;5008046;28;20097;-79
2023/07/20 02:18:38;;;;;;;11.07;4.95;;;26.00;91.30;;;;;;4995222;28;20042;-82
2023/07/20 02:21:06;;;;;;;14.82;5.60;;;26.00;91.50;;;;;;5004013;28;20038;-85
2023/07/20 02:23:33;;;;;;;15.43;4.88;;;26.00;91.70;;;;;;5017672;28;20104;-81
2023/07/20 02:26:01;;;;;;;11.95;4.82;;;25.80;91.70;;;;;;5016588;28;20041;-84
2023/07/20 02:28:29;;;;;;;14.98;5.15;;;25.80;90.80;;;;;;5018532;28;20120;-86
2023/07/20 02:30:57;;;;;;;15.85;4.82;;;25.80;91.60;;;;;;5017600;28;20042;-82
2023/07/20 02:33:25;;;;;;;19.85;5.20;;;25.90;88.90;;;;;;5018706;28;20397;-83
2023/07/20 02:35:52;;;;;;;12.45;5.93;;;26.00;90.80;;;;;;5018392;28;20069;-81
2023/07/20 02:38:19;;;;;;;20.08;4.72;;;25.90;91.60;;;;;;5022787;28;20069;-87
2023/07/20 02:40:47;;;;;;;12.73;5.47;;;25.80;92.00;;;;;;5020519;28;20045;-86
2023/07/20 02:43:14;;;;;;;13.43;6.38;;;25.80;92.00;;;;;;5024986;28;20108;-81
2023/07/20 02:45:43;;;;;;;16.48;5.18;;;25.80;92.20;;;;;;5025625;28;20038;-81
2023/07/20 02:48:10;;;;;;;14.93;5.40;;;25.60;92.50;;;;;;5004136;28;20108;-80
2023/07/20 02:50:38;;;;;;;18.98;4.65;;;25.60;92.70;;;;;;5010662;28;20046;-80
2023/07/20 02:53:05;;;;;;;15.98;5.78;;;25.50;92.80;;;;;;5002162;28;20045;-84
2023/07/20 02:55:32;;;;;;;14.07;5.55;;;25.50;93.20;;;;;;5008863;28;20052;-81
2023/07/20 02:57:59;;;;;;;20.67;5.10;;;25.50;93.00;;;;;;5026417;28;20076;-80
2023/07/20 03:00:27;;;;;;;18.92;5.60;;;25.50;93.20;;;;;;5011833;28;20050;-79
2023/07/20 03:02:55;;;;;;;19.65;6.90;;;25.50;93.10;;;;;;5035230;28;20078;-85
2023/07/20 03:05:27;;;;;;;11.95;5.35;;;25.60;93.30;;;;;;5014990;28;20434;-86
2023/07/20 03:07:56;;;;;;;10.95;5.40;;;25.60;93.50;;;;;;5007133;28;20053;-78
2023/07/20 03:10:23;;;;;;;12.48;5.32;;;25.50;93.60;;;;;;5019420;28;20065;-86
2023/07/20 03:12:50;;;;;;;12.98;5.22;;;25.50;93.80;;;;;;5014447;28;20042;-83
2023/07/20 03:15:18;;;;;;;18.75;5.35;;;25.40;94.10;;;;;;4995961;28;20125;-81
2023/07/20 03:17:45;;;;;;;14.13;5.63;;;25.30;94.30;;;;;;4997730;28;20042;-82
2023/07/20 03:20:13;;;;;;;14.77;5.15;;;25.50;94.20;;;;;;5002185;28;20096;-81
2023/07/20 03:22:40;;;;;;;14.18;5.30;;;25.40;94.30;;;;;;5017316;28;20469;-80
2023/07/20 03:25:08;;;;;;;9.85;5.07;;;25.40;94.40;;;;;;5007907;28;20469;-82
2023/07/20 03:27:35;;;;;;;16.50;5.28;;;25.30;94.50;;;;;;4983911;28;20077;-82
2023/07/20 03:30:02;;;;;;;15.23;5.30;;;25.20;94.60;;;;;;5010251;28;20042;-80
2023/07/20 03:32:30;;;;;;;12.77;5.53;;;25.20;94.60;;;;;;5008973;28;20038;-84
2023/07/20 03:34:58;;;;;;;10.32;5.60;;;25.20;94.90;;;;;;5016444;28;20109;-80
2023/07/20 03:37:25;;;;;;;20.80;5.80;;;25.30;95.10;;;;;;4997967;28;20458;-84
2023/07/20 03:39:52;;;;;;;12.43;4.95;;;25.40;94.90;;;;;;4981232;28;20077;-84
2023/07/20 03:42:19;;;;;;;12.57;5.20;;;25.30;94.90;;;;;;4997609;28;20064;-82
2023/07/20 03:44:47;;;;;;;16.13;5.43;;;25.10;95.40;;;;;;4995786;28;20160;-82
2023/07/20 03:47:14;;;;;;;14.00;5.72;;;25.20;95.60;;;;;;5012399;28;20081;-83
2023/07/20 03:49:42;;;;;;;21.73;6.93;;;25.10;95.70;;;;;;4994652;28;20410;-82
2023/07/20 03:52:09;;;;;;;16.02;5.60;;;25.10;95.90;;;;;;5015798;28;20057;-79
2023/07/20 03:54:36;;;;;;;10.20;5.20;;;25.10;95.80;;;;;;5004077;28;20047;-81
2023/07/20 03:57:04;;;;;;;10.93;5.90;;;25.20;95.50;;;;;;4995885;28;20447;-80
2023/07/20 03:59:31;;;;;;;18.42;5.85;;;25.40;95.60;;;;;;5005129;28;20440;-83
2023/07/20 04:01:58;;;;;;;20.42;4.95;;;25.40;95.30;;;;;;4997769;28;20453;-79
2023/07/20 04:04:26;;;;;;;19.83;7.15;;;25.40;95.50;;;;;;5011072;28;20038;-79
2023/07/20 04:06:53;;;;;;;14.52;5.55;;;25.30;95.80;;;;;;5020668;28;20120;-81
2023/07/20 04:09:20;;;;;;;14.50;5.63;;;25.20;95.80;;;;;;5026856;28;20073;-78
2023/07/20 04:11:48;;;;;;;14.27;5.55;;;24.90;96.90;;;;;;4998434;28;20355;-78
2023/07/20 04:14:16;;;;;;;17.25;5.72;;;24.90;97.00;;;;;;5015468;28;20121;-80
2023/07/20 04:16:45;;;;;;;12.88;6.05;;;24.80;97.00;;;;;;4999117;28;20030;-81
2023/07/20 04:19:14;;;;;;;15.68;5.60;;;25.00;97.10;;;;;;5010874;28;20449;-82
2023/07/20 04:21:42;;;;;;;13.55;6.32;;;25.20;96.70;;;;;;5012481;28;20054;-82
2023/07/20 04:24:10;;;;;;;14.60;6.28;;;25.20;96.30;;;;;;4998374;28;20054;-86
2023/07/20 04:26:37;;;;;;;15.85;6.95;;;25.30;96.30;;;;;;5026903;28;20042;-81
2023/07/20 04:29:07;;;;;;;16.40;6.90;;;25.10;96.50;;;;;;4996289;28;20425;-82
2023/07/20 04:31:35;;;;;;;14.60;6.70;;;25.00;96.70;;;;;;5004742;28;20050;-81
2023/07/20 04:34:02;;;;;;;13.18;6.22;;;25.10;96.70;;;;;;5011255;28;20074;-77
2023/07/20 04:36:30;;;;;;;12.80;5.95;;;25.10;96.80;;;;;;5009274;28;20109;-83
2023/07/20 04:38:57;;;;;;;10.93;5.60;;;25.10;96.90;;;;;;5010210;28;20065;-81
2023/07/20 04:41:27;;;;;;;14.48;7.15;;;25.30;96.90;;;;;;5012598;28;20080;-78
2023/07/20 04:43:54;;;;;;;14.88;5.95;;;25.40;96.70;;;;;;5013162;28;20438;-78
2023/07/20 04:46:21;;;;;;;16.55;6.90;;;25.20;96.80;;;;;;5012072;28;20120;-81
2023/07/20 04:48:49;;;;;;;15.98;6.50;;;25.00;97.40;;;;;;5011307;28;20069;-82
2023/07/20 04:51:20;;;;;;;14.07;6.40;;;25.00;97.70;;;;;;5017622;28;20395;-86
2023/07/20 04:53:49;;;;;;;19.85;6.65;;;25.20;97.10;;;;;;5016851;28;20054;-80
2023/07/20 04:56:16;;;;;;;12.15;6.20;;;25.30;96.90;;;;;;5016532;28;20489;-84
2023/07/20 04:58:45;;;;;;;20.13;6.55;;;25.30;97.00;;;;;;5019247;28;20073;-85
2023/07/20 05:01:12;;;;;;;12.75;6.40;;;25.30;97.30;;;;;;5016346;28;20038;-81
2023/07/20 05:03:40;;;;;;;13.38;6.90;;;25.50;97.70;;;;;;5018346;28;20453;-82
2023/07/20 05:06:10;;;;;;;14.85;7.85;;;25.50;97.40;;;;;;5016402;28;20122;-83
2023/07/20 05:08:37;;;;;;;22.13;8.35;;;25.20;97.10;;;;;;5016253;28;20062;-82
2023/07/20 05:11:05;;;;;;;14.15;6.75;;;25.10;97.40;;;;;;5013556;28;20057;-85
2023/07/20 05:13:32;;;;;;;15.40;8.02;;;25.10;97.70;;;;;;5016865;28;20041;-82
2023/07/20 05:15:59;;;;;;;14.90;6.57;;;25.10;97.60;;;;;;5022488;28;20097;-82
2023/07/20 05:18:26;;;;;;;21.67;8.48;;;25.00;97.70;;;;;;5020610;28;20448;-83
2023/07/20 05:20:55;;;;;;;11.02;7.15;;;25.20;97.50;;;;;;5007172;28;20449;-83
2023/07/20 05:23:22;;;;;;;14.98;6.68;;;25.20;97.50;;;;;;5011782;28;20046;-83
2023/07/20 05:25:59;;;;;;;14.90;6.22;;;25.10;97.70;;;;;;4999188;28;20112;-83
2023/07/20 05:28:27;;;;;;;16.38;6.85;;;25.30;97.60;;;;;;5012909;28;20033;-84
2023/07/20 05:30:55;;;;;;;16.50;7.97;;;25.50;97.70;;;;;;5008947;28;20047;-87
2023/07/20 05:33:22;;;;;;;18.13;7.10;;;25.60;97.20;;;;;;5023509;28;20042;-78
2023/07/20 05:35:49;;;;;;;16.35;7.15;;;25.80;97.00;;;;;;5012003;28;20058;-85
2023/07/20 05:38:17;;;;;;;65.00;43.20;;;25.90;97.00;;;;;;5029344;28;20046;-87
2023/07/20 05:40:46;;;;;;;68.53;47.85;;;26.10;96.70;;;;;;5021099;28;20038;-85
2023/07/20 05:43:14;;;;;;;78.88;49.80;;;26.10;96.70;;;;;;5007134;28;20126;-86
2023/07/20 05:45:43;;;;;;;64.43;38.92;;;25.90;96.90;;;;;;5002376;28;20048;-83
2023/07/20 05:48:13;;;;;;;39.25;24.15;;;26.10;96.50;;;;;;5013691;28;20461;-85
2023/07/20 05:50:44;;;;;;;94.15;62.17;;;26.30;96.30;;;;;;4999603;28;20045;-81
2023/07/20 05:53:12;;;;;;;28.48;18.13;;;26.40;96.20;;;;;;5016277;28;20049;-79
2023/07/20 05:55:40;;;;;;;27.67;11.15;;;26.60;96.10;;;;;;4997705;28;20042;-81
2023/07/20 05:58:09;;;;;;;22.52;9.55;;;26.60;95.40;;;;;;5031932;28;20081;-84
2023/07/20 06:00:39;;;;;;;21.10;9.73;;;26.60;95.20;;;;;;5022859;28;20431;-84
2023/07/20 06:03:11;;;;;;;22.45;9.23;;;26.60;95.50;;;;;;5005405;28;20047;-82
2023/07/20 06:05:41;;;;;;;20.95;10.30;;;26.70;95.10;;;;;;5019289;28;20489;-80
2023/07/20 06:08:08;;;;;;;19.30;9.87;;;26.70;94.90;;;;;;5004587;28;20498;-82
2023/07/20 06:10:37;;;;;;;20.63;10.32;;;26.70;95.40;;;;;;5018846;28;20050;-77
2023/07/20 06:13:04;;;;;;;28.17;11.18;;;26.80;96.00;;;;;;5004768;28;20037;-82
2023/07/20 06:15:35;;;;;;;16.83;10.68;;;26.90;96.40;;;;;;5003820;28;20509;-83
2023/07/20 06:18:04;;;;;;;26.02;11.00;;;27.00;96.20;;;;;;5017960;28;20494;-82
2023/07/20 06:20:32;;;;;;;33.67;10.57;;;26.50;95.70;;;;;;5011042;28;20063;-82
2023/07/20 06:23:01;;;;;;;26.88;11.80;;;26.70;95.90;;;;;;5034031;28;20121;-80
2023/07/20 06:25:28;;;;;;;26.73;12.35;;;26.70;95.50;;;;;;5003586;28;20857;-82
2023/07/20 06:27:57;;;;;;;24.65;10.50;;;26.80;95.20;;;;;;5001281;28;20123;-82
2023/07/20 06:30:28;;;;;;;23.23;10.20;;;27.00;95.60;;;;;;4999958;28;20161;-80
2023/07/20 06:32:58;;;;;;;23.42;11.07;;;27.10;95.10;;;;;;5006380;28;20073;-79
2023/07/20 06:35:27;;;;;;;95.60;57.03;;;27.10;95.40;;;;;;5008579;28;20042;-80
2023/07/20 06:37:59;;;;;;;280.50;195.77;;;27.10;95.30;;;;;;5027958;28;20054;-81
2023/07/20 06:40:47;;;;;;;82.00;54.45;;;27.20;95.80;;;;;;5021181;28;20130;-81
2023/07/20 06:43:14;;;;;;;50.58;30.15;;;27.00;95.80;;;;;;5003524;28;20046;-80
2023/07/20 06:45:44;;;;;;;;;;;27.00;96.40;;;;;;5020410;28;20128;-84
2023/07/20 06:48:12;;;;;;;25.77;14.07;;;27.10;96.70;;;;;;5020446;28;19936;-82
2023/07/20 06:50:39;;;;;;;28.10;13.48;;;27.20;95.80;;;;;;5014320;28;20129;-81
2023/07/20 06:53:06;;;;;;;33.53;12.93;;;27.30;96.20;;;;;;5015952;28;20067;-81
2023/07/20 06:55:34;;;;;;;28.98;11.73;;;27.30;95.50;;;;;;5017247;28;20508;-82
2023/07/20 06:58:14;;;;;;;24.63;10.75;;;27.30;95.30;;;;;;5017101;28;20397;-81
2023/07/20 07:00:47;;;;;;;26.45;11.65;;;27.20;95.20;;;;;;5002435;28;20058;-82
2023/07/20 07:03:17;;;;;;;23.25;10.82;;;27.40;95.20;;;;;;5002300;28;20548;-79
2023/07/20 07:05:46;;;;;;;28.95;10.43;;;27.40;94.90;;;;;;5016732;28;20050;-83
2023/07/20 07:08:17;;;;;;;24.63;10.05;;;27.40;95.40;;;;;;5019643;28;20405;-82
2023/07/20 07:10:45;;;;;;;20.48;9.75;;;27.50;95.70;;;;;;5018720;28;20139;-81
2023/07/20 07:13:14;;;;;;;23.63;10.93;;;27.50;95.70;;;;;;5017606;28;20050;-82
2023/07/20 07:15:44;;;;;;;31.25;11.85;;;27.50;95.10;;;;;;5016753;28;20050;-83
2023/07/20 07:18:12;;;;;;;31.10;12.43;;;27.50;95.20;;;;;;5010544;28;20389;-81
2023/07/20 07:20:39;;;;;;;22.88;9.90;;;27.50;94.90;;;;;;5015527;28;20046;-82
2023/07/20 07:23:12;;;;;;;27.95;10.07;;;27.50;95.00;;;;;;5020508;28;20062;-82
2023/07/20 07:25:39;;;;;;;25.60;11.15;;;27.50;95.10;;;;;;5004698;28;20096;-82
2023/07/20 07:28:09;;;;;;;23.45;9.13;;;27.70;94.60;;;;;;5034623;28;20125;-82
2023/07/20 07:30:40;;;;;;;23.38;11.07;;;27.70;94.30;;;;;;5001039;28;20469;-81
2023/07/20 07:33:10;;;;;;;25.48;10.15;;;27.70;94.20;;;;;;5001021;28;20070;-82
2023/07/20 07:35:38;;;;;;;27.67;9.10;;;27.70;94.50;;;;;;5019044;28;20065;-83
2023/07/20 07:38:12;;;;;;;21.55;9.68;;;27.70;94.40;;;;;;5011827;28;20399;-82
2023/07/20 07:41:04;;;;;;;22.95;9.05;;;27.80;95.00;;;;;;5021218;28;20038;-82
2023/07/20 07:43:39;;;;;;;21.15;8.43;;;27.80;94.80;;;;;;5025657;28;20096;-81
2023/07/20 07:46:06;;;;;;;18.83;8.27;;;27.90;94.20;;;;;;5022187;28;20038;-83
2023/07/20 07:48:34;;;;;;;19.20;9.98;;;27.90;94.70;;;;;;5028845;28;20060;-81
2023/07/20 07:51:04;;;;;;;17.77;9.10;;;28.00;94.50;;;;;;5018037;28;20040;-81
2023/07/20 07:53:35;;;;;;;25.75;9.38;;;28.00;94.60;;;;;;5028888;28;20635;-81
2023/07/20 07:56:06;;;;;;;23.38;9.80;;;28.00;94.20;;;;;;5016825;28;20068;-81
2023/07/20 07:58:37;;;;;;;21.02;9.30;;;28.00;93.40;;;;;;5010783;28;20436;-83
2023/07/20 08:01:04;;;;;;;19.15;9.70;;;28.00;93.60;;;;;;4997744;28;20105;-83
2023/07/20 08:03:34;;;;;;;18.05;8.10;;;28.10;93.20;;;;;;5004119;28;20062;-85
2023/07/20 08:06:04;;;;;;;14.90;6.57;;;28.00;93.70;;;;;;5027992;28;20077;-81
2023/07/20 08:08:32;;;;;;;15.45;6.35;;;27.90;93.80;;;;;;5012660;28;20109;-85
2023/07/20 08:11:00;;;;;;;13.65;5.45;;;28.00;93.90;;;;;;5033426;28;20054;-84
2023/07/20 08:13:35;;;;;;;12.20;5.85;;;28.00;94.20;;;;;;5009643;28;20363;-83
2023/07/20 08:16:03;;;;;;;14.95;7.32;;;28.10;94.50;;;;;;5016388;28;20070;-82
2023/07/20 08:18:35;;;;;;;15.80;6.65;;;28.10;93.90;;;;;;5016330;28;20042;-82
2023/07/20 08:21:04;;;;;;;15.30;6.95;;;28.30;94.00;;;;;;4999144;28;20386;-81
2023/07/20 08:23:34;;;;;;;17.08;7.40;;;28.30;93.80;;;;;;5005466;28;20394;-81
2023/07/20 08:26:03;;;;;;;16.63;7.15;;;28.40;93.60;;;;;;4982049;28;20084;-82
2023/07/20 08:28:31;;;;;;;21.65;8.02;;;28.40;93.80;;;;;;5009426;28;20454;-82
2023/07/20 08:31:00;;;;;;;22.63;6.93;;;28.40;93.60;;;;;;5025558;28;20038;-79
2023/07/20 08:33:33;;;;;;;20.48;7.80;;;28.50;93.50;;;;;;5014831;28;20058;-81
2023/07/20 08:36:05;;;;;;;15.50;6.88;;;28.50;93.00;;;;;;5031288;28;20116;-80
2023/07/20 08:38:38;;;;;;;15.13;6.82;;;28.50;93.30;;;;;;5011920;28;20034;-81
2023/07/20 08:41:13;;;;;;;21.07;7.93;;;28.50;93.20;;;;;;5017872;28;20102;-82
2023/07/20 08:43:46;;;;;;;14.43;7.10;;;28.60;93.30;;;;;;4992799;28;20310;-81
2023/07/20 08:46:16;;;;;;;19.92;7.65;;;28.60;92.90;;;;;;5007497;28;20474;-80
2023/07/20 08:48:45;;;;;;;18.33;6.97;;;28.70;93.00;;;;;;5030897;28;20050;-82
2023/07/20 08:51:15;;;;;;;15.47;6.77;;;28.80;92.30;;;;;;5009903;28;20073;-83
2023/07/20 08:53:45;;;;;;;20.13;7.80;;;28.80;92.20;;;;;;5031942;28;20045;-79
2023/07/20 08:56:16;;;;;;;16.42;6.95;;;28.70;92.10;;;;;;5018868;28;20567;-83
2023/07/20 08:58:44;;;;;;;20.33;5.88;;;28.80;92.00;;;;;;5000474;28;20045;-83
2023/07/20 09:01:32;;;;;;;10.10;5.97;;;28.70;91.80;;;;;;5001530;28;20056;-82
2023/07/20 09:04:00;;;;;;;16.48;6.25;;;28.90;91.70;;;;;;4998113;28;20088;-85
2023/07/20 09:06:30;;;;;;;14.05;5.32;;;28.90;91.70;;;;;;5001256;28;20553;-85
2023/07/20 09:09:41;;;;;;;12.10;5.45;;;29.00;91.50;;;;;;5019244;28;20921;-86
2023/07/20 09:12:24;;;;;;;14.27;6.82;;;29.00;91.40;;;;;;5026222;28;20050;-84
2023/07/20 09:14:57;;;;;;;13.00;5.65;;;29.10;91.40;;;;;;4981700;28;20054;-87
2023/07/20 09:17:49;;;;;;;13.00;6.15;;;29.10;91.40;;;;;;5002360;28;20069;-85
2023/07/20 09:24:23;;;;;;;10.70;4.55;;;29.40;90.90;;;;;;5023355;28;20335;-84
2023/07/20 09:26:56;;;;;;;15.02;5.30;;;29.50;90.70;;;;;;5018193;28;20046;-82
2023/07/20 09:29:52;;;;;;;15.40;4.68;;;29.50;90.60;;;;;;5019125;28;20053;-80
2023/07/20 09:32:21;;;;;;;8.98;4.45;;;29.70;90.50;;;;;;4998405;28;20051;-81
2023/07/20 09:34:52;;;;;;;10.40;5.10;;;29.90;90.70;;;;;;5012386;28;20038;-80
2023/07/20 09:37:22;;;;;;;14.63;4.90;;;30.00;90.30;;;;;;5008497;28;20050;-79
2023/07/20 09:39:52;;;;;;;9.45;5.22;;;30.10;90.10;;;;;;5014636;28;20051;-82
2023/07/20 09:42:25;;;;;;;11.70;4.53;;;30.10;90.00;;;;;;5015501;28;20481;-79
2023/07/20 09:44:58;;;;;;;11.20;4.85;;;30.10;90.40;;;;;;4999894;28;20117;-79
2023/07/20 09:47:27;;;;;;;12.75;5.20;;;30.20;89.80;;;;;;5010003;28;20498;-81
2023/07/20 09:50:00;;;;;;;9.50;4.88;;;30.20;89.90;;;;;;5001526;28;20044;-79
2023/07/20 09:52:31;;;;;;;11.40;5.13;;;30.30;89.60;;;;;;5032748;28;20049;-82
2023/07/20 09:55:03;;;;;;;12.38;5.40;;;30.60;90.00;;;;;;5017076;28;20472;-80
2023/07/20 09:57:33;;;;;;;16.07;5.70;;;30.60;88.90;;;;;;5023110;28;20468;-80
2023/07/20 10:00:04;;;;;;;14.80;5.10;;;30.60;88.70;;;;;;5001464;28;20046;-82
2023/07/20 10:02:43;;;;;;;9.80;5.00;;;30.60;89.00;;;;;;5021158;28;20034;-80
2023/07/20 10:05:16;;;;;;;11.13;5.50;;;30.70;88.50;;;;;;5021950;28;20465;-83
2023/07/20 10:07:58;;;;;;;13.05;5.00;;;30.80;89.20;;;;;;5033851;28;20405;-82
2023/07/20 10:10:36;;;;;;;11.77;5.05;;;30.90;88.80;;;;;;5021792;28;20404;-81
2023/07/20 10:13:13;;;;;;;16.58;5.55;;;30.90;88.90;;;;;;5013669;28;20145;-79
2023/07/20 10:15:53;;;;;;;15.77;6.25;;;30.90;88.10;;;;;;4996057;28;20038;-80
2023/07/20 10:18:39;;;;;;;9.05;4.72;;;30.90;87.40;;;;;;5038642;28;20068;-78
2023/07/20 10:21:08;;;;;;;12.18;5.32;;;30.90;87.10;;;;;;5020237;28;20048;-82
2023/07/20 10:23:39;;;;;;;13.07;4.85;;;30.90;87.20;;;;;;5021723;28;20038;-80
2023/07/20 10:26:08;;;;;;;13.05;5.32;;;31.10;86.90;;;;;;5018819;28;20038;-79
2023/07/20 10:28:38;;;;;;;11.63;5.25;;;31.20;85.50;;;;;;5007272;28;20098;-79
2023/07/20 10:31:09;;;;;;;11.27;5.40;;;31.30;85.50;;;;;;5012252;28;20046;-79
2023/07/20 10:33:38;;;;;;;11.00;5.25;;;31.50;84.50;;;;;;5006478;28;20046;-79
2023/07/20 10:36:13;;;;;;;18.08;5.20;;;31.60;83.90;;;;;;5023743;28;20397;-83
2023/07/20 10:38:45;;;;;;;12.77;5.13;;;31.70;84.80;;;;;;5015832;28;20047;-79
2023/07/20 10:41:28;;;;;;;16.52;5.45;;;31.60;85.10;;;;;;5025737;28;20046;-91
2023/07/20 10:44:03;;;;;;;12.40;5.40;;;31.80;85.10;;;;;;5017012;28;20038;-82
2023/07/20 10:46:38;;;;;;;11.45;5.75;;;31.70;84.70;;;;;;5015209;28;20046;-83
2023/07/20 10:49:26;;;;;;;9.75;4.97;;;31.70;85.00;;;;;;5014527;28;20046;-81
2023/07/20 10:52:00;;;;;;;10.50;4.72;;;31.70;84.80;;;;;;5028596;28;20041;-81
2023/07/20 10:54:50;;;;;;;12.60;5.40;;;31.90;84.70;;;;;;5010818;28;20058;-83
2023/07/20 10:57:59;;;;;;;10.65;5.75;;;32.00;84.90;;;;;;5022940;28;20035;-83
2023/07/20 11:00:33;;;;;;;13.85;5.40;;;32.00;83.30;;;;;;5021985;28;20056;-84
2023/07/20 11:03:30;;;;;;;10.00;5.10;;;32.10;83.50;;;;;;5017412;28;20053;-83
2023/07/20 11:06:25;;;;;;;9.70;5.10;;;32.30;82.70;;;;;;5019695;28;20481;-81
2023/07/20 11:08:59;;;;;;;14.45;5.80;;;32.30;82.00;;;;;;5033375;28;20393;-84
2023/07/20 11:11:34;;;;;;;13.93;6.00;;;32.20;82.40;;;;;;5018832;28;20045;-83
2023/07/20 11:14:23;;;;;;;9.73;5.40;;;32.30;83.00;;;;;;5018571;28;20040;-84
2023/07/20 11:16:55;;;;;;;;;;;32.60;81.90;;;;;;5033566;28;20046;-84
2023/07/20 11:19:25;;;;;;;10.40;5.05;;;32.70;81.80;;;;;;5040244;22;19921;-82
2023/07/20 11:21:59;;;;;;;12.63;5.03;;;32.60;82.00;;;;;;5021896;28;20045;-83
2023/07/20 11:24:31;;;;;;;11.75;5.65;;;32.50;82.00;;;;;;5001278;28;20064;-82
2023/07/20 11:27:00;;;;;;;13.40;5.65;;;32.40;82.60;;;;;;5038716;28;20169;-82
2023/07/20 11:29:28;;;;;;;13.07;5.60;;;32.40;82.20;;;;;;5049744;28;20030;-82
2023/07/20 11:32:48;;;;;;;9.02;4.88;;;32.60;82.50;;;;;;5022178;28;20053;-81
2023/07/20 11:35:16;;;;;;;14.50;5.45;;;32.80;82.10;;;;;;5021006;28;20876;-83
2023/07/20 11:37:50;;;;;;;14.63;5.45;;;32.90;81.10;;;;;;5026531;28;20038;-84
2023/07/20 11:44:40;;;;;;;11.98;5.28;;;33.10;79.60;;;;;;4938058;29;20335;-83
2023/07/20 11:47:11;;;;;;;11.90;5.65;;;33.50;79.60;;;;;;4924002;29;20043;-81
2023/07/20 11:49:42;;;;;;;15.10;5.53;;;33.40;78.70;;;;;;4961217;28;20046;-83
2023/07/20 11:52:37;;;;;;;12.82;4.82;;;33.30;78.00;;;;;;4919011;29;21727;-84
2023/07/20 11:55:30;;;;;;;10.00;5.18;;;33.30;77.70;;;;;;4912965;29;20674;-82
2023/07/20 11:58:08;;;;;;;16.95;4.70;;;33.60;77.90;;;;;;4938207;29;20058;-82
2023/07/20 12:00:45;;;;;;;12.27;5.68;;;33.70;76.70;;;;;;4926698;29;20506;-81
2023/07/20 12:03:13;;;;;;;9.55;4.93;;;33.90;76.40;;;;;;4935828;29;20051;-82
2023/07/20 12:05:42;;;;;;;15.55;6.20;;;34.10;75.80;;;;;;4928604;29;20369;-81
2023/07/20 12:08:32;;;;;;;12.73;4.95;;;34.00;75.30;;;;;;4944621;29;20483;-80
2023/07/20 12:11:37;;;;;;;13.80;4.95;;;34.00;75.00;;;;;;4931267;29;20027;-82
2023/07/20 12:14:09;;;;;;;11.23;5.50;;;34.10;75.50;;;;;;4937417;29;20141;-82
2023/07/20 12:16:44;;;;;;;11.25;4.78;;;34.00;74.90;;;;;;4947893;29;20049;-80
2023/07/20 12:19:17;;;;;;;13.25;5.90;;;33.90;74.70;;;;;;4935919;29;20067;-82
2023/07/20 12:22:00;;;;;;;11.88;5.28;;;33.70;74.10;;;;;;4984341;28;20061;-84
2023/07/20 12:24:29;;;;;;;14.50;6.07;;;33.70;74.60;;;;;;5014067;28;20064;-82
2023/07/20 12:26:58;;;;;;;18.33;5.93;;;33.90;74.60;;;;;;4986649;28;20046;-82
2023/07/20 12:29:27;;;;;;;11.90;5.80;;;34.00;74.70;;;;;;5002531;28;20101;-80
2023/07/20 12:31:56;;;;;;;13.73;5.72;;;33.80;74.40;;;;;;5015312;28;20042;-80
2023/07/20 12:34:27;;;;;;;11.23;5.75;;;33.90;74.80;;;;;;4986144;28;20576;-80
2023/07/20 12:36:58;;;;;;;13.57;5.75;;;33.90;73.80;;;;;;4974251;28;20065;-80
2023/07/20 12:39:33;;;;;;;13.90;4.88;;;34.00;73.50;;;;;;4987280;28;20062;-81
2023/07/20 12:42:08;;;;;;;11.18;5.40;;;34.00;73.90;;;;;;5003757;28;20125;-80
2023/07/20 12:44:36;;;;;;;11.95;5.45;;;34.00;74.20;;;;;;4997449;28;20037;-80
2023/07/20 12:47:19;;;;;;;10.73;5.43;;;34.00;74.70;;;;;;4975166;28;20038;-79
2023/07/20 12:49:47;;;;;;;11.77;4.63;;;34.20;74.00;;;;;;4979040;28;20037;-83
2023/07/20 12:52:23;;;;;;;15.35;4.88;;;34.20;74.30;;;;;;4999045;28;20494;-82
2023/07/20 12:54:51;;;;;;;9.82;4.75;;;34.30;73.60;;;;;;5002621;28;20049;-82
2023/07/20 12:57:18;;;;;;;16.05;5.85;;;34.40;74.60;;;;;;5014915;28;20410;-82
2023/07/20 12:59:56;;;;;;;14.50;5.35;;;34.30;73.10;;;;;;5004851;28;20489;-80
2023/07/20 13:02:37;;;;;;;17.02;5.25;;;34.20;72.70;;;;;;5002577;28;20095;-80
2023/07/20 13:05:07;;;;;;;12.70;5.43;;;34.20;72.70;;;;;;5000660;28;20050;-79